VMMC/MFM METAR and TAF weather

Enter ICAO airport designator
Station Type Date Time Source
VMMC METAR 2022/01/29 13:30 UTC NOAA

VMMC 291330Z 34010KT 9999 FEW022 SCT035 15/10 Q1015 NOSIG


Station Type Date Time Source
VMMC Decoded METAR 2022/01/29 13:30 UTC NOAA

Taipa, Macau (VMMC) 22-10N 113-34E
Jan 29, 2022 - 08:30 AM EST / 2022.01.29 1330 UTC
Wind: from the NNW (340 degrees) at 12 MPH (10 KT):0
Visibility: greater than 7 mile(s):0
Sky conditions: partly cloudy
Temperature: 59 F (15 C)
Dew Point: 50 F (10 C)
Relative Humidity: 72%
Pressure (altimeter): 29.97 in. Hg (1015 hPa)
ob: VMMC 291330Z 34010KT 9999 FEW022 SCT035 15/10 Q1015 NOSIG
cycle: 13

Station Type Date Time Source
VMMC TAF 2022/01/29 12:21 UTC NOAA

TAF VMMC 291100Z 2912/3018 35014KT 9999 FEW020 SCT035
TEMPO 2918/3004 36018G28KT 4000 -RA BR

Example: see airport list